Queen City, Ohio
Current Conditions -  °F | °C
As of 11:17 PM on Tuesday 25 Nov 2014 (Local Time) from KI69 Reporting Station
Clear Clear  
Wind Chill: 30°   Ceiling: Unl
Heat Index: 34°   Visibility: 10mi
Dew Point: 30°   Wind: 5mph
Humidity: 87%   Direction: 30°NNE
Pressure: 30.17"   Gusts: NA
Location:  39.0938°N, 84.574°W
Report Text: KI69 260417Z AUTO 03004KT 10SM CLR 01/M01 A3017 RMK AO1
Loading
Personal Weather Stations






























Interactive Weather Map New forecast layout! Learn more

10-Day Weather Forecast

Advertisements
Track Severe Weather on mobile